createdAt,value
2022-10-17T00:01:58.239Z,4.45
2022-10-17T00:04:24.708Z,4.22
2022-10-17T00:06:51.148Z,4.65
2022-10-17T00:09:17.557Z,4.70
2022-10-17T00:11:43.928Z,4.82
2022-10-17T00:14:10.413Z,4.95
2022-10-17T00:16:37.560Z,4.43
2022-10-17T00:19:05.191Z,4.22
2022-10-17T00:21:31.614Z,4.80
2022-10-17T00:23:58.778Z,4.57
2022-10-17T00:26:25.298Z,4.65
2022-10-17T00:28:52.890Z,4.82
2022-10-17T00:31:20.434Z,4.63
2022-10-17T00:33:47.459Z,4.80
2022-10-17T00:36:15.368Z,4.50
2022-10-17T00:38:42.752Z,5.03
2022-10-17T00:41:10.079Z,4.22
2022-10-17T00:43:49.788Z,4.38
2022-10-17T00:46:16.366Z,4.82
2022-10-17T00:48:43.396Z,5.00
2022-10-17T00:51:09.881Z,4.70
2022-10-17T00:53:37.149Z,4.82
2022-10-17T00:56:03.655Z,4.72
2022-10-17T00:58:30.179Z,4.72
2022-10-17T01:00:56.598Z,4.45
2022-10-17T01:03:23.228Z,4.55
2022-10-17T01:05:50.159Z,4.45
2022-10-17T01:08:16.748Z,4.55
2022-10-17T01:10:48.984Z,4.40
2022-10-17T01:16:00.563Z,4.10
2022-10-17T01:18:29.971Z,4.43
2022-10-17T01:21:16.631Z,4.90
2022-10-17T01:23:52.171Z,4.60
2022-10-17T01:26:37.485Z,4.70
2022-10-17T01:29:03.884Z,4.40
2022-10-17T01:31:39.169Z,5.00
2022-10-17T01:34:18.040Z,4.60
2022-10-17T01:36:50.056Z,4.85
2022-10-17T01:39:29.967Z,4.65
2022-10-17T01:42:01.111Z,4.35
2022-10-17T01:44:32.834Z,4.55
2022-10-17T01:47:01.914Z,4.50
2022-10-17T01:49:29.679Z,4.57
2022-10-17T01:51:58.430Z,4.80
2022-10-17T01:54:30.771Z,4.20
2022-10-17T01:56:59.857Z,4.50
2022-10-17T01:59:29.294Z,4.38
2022-10-17T02:01:56.351Z,4.35
2022-10-17T02:04:23.036Z,4.85
2022-10-17T02:06:49.443Z,4.97
2022-10-17T02:09:16.973Z,4.22
2022-10-17T02:11:48.099Z,4.18
2022-10-17T02:14:37.730Z,4.60
2022-10-17T02:17:15.020Z,4.72
2022-10-17T02:19:41.363Z,4.30
2022-10-17T02:22:19.926Z,4.60
2022-10-17T02:24:49.421Z,4.20
2022-10-17T02:27:34.187Z,4.45
2022-10-17T02:30:06.910Z,4.22
2022-10-17T02:32:33.316Z,4.53
2022-10-17T02:35:00.775Z,4.30
2022-10-17T02:37:28.840Z,4.63
2022-10-17T02:39:57.587Z,4.45
2022-10-17T02:42:24.755Z,4.40
2022-10-17T02:44:51.713Z,4.78
2022-10-17T02:47:24.255Z,4.35
2022-10-17T02:49:51.636Z,4.20
2022-10-17T02:52:25.525Z,4.35
2022-10-17T02:54:54.449Z,4.63
2022-10-17T02:57:27.398Z,4.50
2022-10-17T02:59:54.659Z,4.57
2022-10-17T03:02:21.084Z,4.75
2022-10-17T03:04:47.748Z,4.60
2022-10-17T03:07:14.174Z,4.35
2022-10-17T03:09:40.550Z,4.22
2022-10-17T03:12:06.983Z,4.38
2022-10-17T03:14:33.414Z,4.35
2022-10-17T03:17:00.093Z,4.53
2022-10-17T03:19:26.506Z,4.80
2022-10-17T03:21:52.954Z,4.47
2022-10-17T03:24:19.405Z,4.45
2022-10-17T03:29:13.764Z,4.50
2022-10-17T03:31:40.144Z,4.78
2022-10-17T03:34:06.551Z,5.10
2022-10-17T03:36:33.025Z,4.78
2022-10-17T03:38:59.488Z,4.88
2022-10-17T03:41:25.898Z,4.60
2022-10-17T03:43:52.917Z,4.82
2022-10-17T03:46:19.409Z,4.60
2022-10-17T03:48:45.861Z,4.55
2022-10-17T03:51:12.254Z,4.57
2022-10-17T03:53:38.676Z,4.80
2022-10-17T03:56:12.535Z,4.10
2022-10-17T03:58:40.258Z,4.10
2022-10-17T04:01:07.279Z,4.28
2022-10-17T04:03:33.728Z,4.90
2022-10-17T04:06:01.066Z,4.60
2022-10-17T04:08:27.828Z,4.57
2022-10-17T04:10:57.964Z,5.13
2022-10-17T04:13:24.366Z,4.35
2022-10-17T04:15:54.884Z,5.00
2022-10-17T04:18:21.351Z,4.40
2022-10-17T04:20:47.829Z,4.90
2022-10-17T04:23:14.269Z,4.65
2022-10-17T04:25:40.680Z,4.75
2022-10-17T04:28:07.116Z,4.47
2022-10-17T04:30:33.627Z,4.85
2022-10-17T04:33:00.050Z,5.15
2022-10-17T04:35:26.450Z,4.63
2022-10-17T04:37:52.827Z,4.75
2022-10-17T04:40:19.250Z,4.78
2022-10-17T04:42:45.654Z,4.90
2022-10-17T04:45:12.263Z,4.80
2022-10-17T04:47:41.709Z,4.75
2022-10-17T04:50:08.609Z,4.60
2022-10-17T04:52:37.526Z,4.47
2022-10-17T04:55:05.270Z,4.93
2022-10-17T04:57:34.190Z,4.63
2022-10-17T05:00:00.659Z,4.97
2022-10-17T05:02:27.307Z,4.57
2022-10-17T05:04:53.938Z,4.70
2022-10-17T05:07:20.323Z,4.85
2022-10-17T05:09:46.714Z,5.03
2022-10-17T05:12:13.122Z,4.70
2022-10-17T05:14:39.523Z,4.95
2022-10-17T05:17:06.021Z,4.50
2022-10-17T05:19:32.689Z,4.63
2022-10-17T05:21:59.120Z,4.10
2022-10-17T05:24:25.725Z,4.80
2022-10-17T05:26:52.252Z,4.53
2022-10-17T05:29:18.662Z,4.72
2022-10-17T05:31:45.045Z,3.95
2022-10-17T05:34:13.199Z,4.55
2022-10-17T05:36:40.418Z,4.53
2022-10-17T05:39:06.820Z,4.65
2022-10-17T05:41:33.215Z,4.93
2022-10-17T05:44:03.112Z,4.90
2022-10-17T05:48:58.391Z,4.43
2022-10-17T05:51:24.845Z,4.53
2022-10-17T05:53:51.284Z,4.85
2022-10-17T05:56:17.706Z,4.43
2022-10-17T05:58:50.136Z,4.45
2022-10-17T06:01:17.310Z,4.55
2022-10-17T06:03:43.715Z,4.65
2022-10-17T06:06:11.678Z,4.07
2022-10-17T06:08:38.156Z,4.25
2022-10-17T06:11:07.536Z,4.13
2022-10-17T06:13:36.479Z,4.78
2022-10-17T06:16:02.992Z,4.70
2022-10-17T06:18:29.424Z,4.85
2022-10-17T06:21:01.776Z,4.30
2022-10-17T06:23:28.239Z,4.25
2022-10-17T06:25:57.759Z,4.38
2022-10-17T06:28:24.197Z,4.30
2022-10-17T06:30:50.637Z,4.72
2022-10-17T06:33:17.978Z,4.30
2022-10-17T06:35:44.619Z,4.43
2022-10-17T06:38:11.055Z,4.72
2022-10-17T06:40:37.485Z,4.28
2022-10-17T06:43:03.867Z,4.35
2022-10-17T06:45:30.278Z,4.72
2022-10-17T06:47:56.664Z,4.30
2022-10-17T06:50:23.042Z,4.25
2022-10-17T06:52:52.460Z,4.55
2022-10-17T06:55:22.587Z,4.38
2022-10-17T06:57:49.747Z,4.20
2022-10-17T07:00:16.304Z,4.25
2022-10-17T07:02:43.210Z,4.78
2022-10-17T07:05:09.826Z,4.47
2022-10-17T07:07:38.923Z,4.38
2022-10-17T07:10:08.815Z,4.57
2022-10-17T07:12:35.628Z,4.07
2022-10-17T07:15:04.247Z,4.22
2022-10-17T07:17:31.397Z,4.18
2022-10-17T07:19:58.350Z,4.03
2022-10-17T07:22:24.905Z,4.32
2022-10-17T07:24:51.308Z,3.80
2022-10-17T07:27:17.681Z,4.25
2022-10-17T07:29:44.084Z,4.10
2022-10-17T07:32:10.631Z,4.00
2022-10-17T07:34:37.500Z,4.10
2022-10-17T07:37:04.163Z,4.07
2022-10-17T07:39:30.626Z,4.40
2022-10-17T07:41:57.232Z,4.75
2022-10-17T07:44:23.652Z,4.20
2022-10-17T07:46:50.155Z,4.10
2022-10-17T07:49:16.555Z,4.10
2022-10-17T07:51:43.260Z,4.60
2022-10-17T07:54:09.670Z,4.13
2022-10-17T07:56:36.252Z,4.13
2022-10-17T07:59:05.311Z,4.30
2022-10-17T08:04:01.130Z,5.03
2022-10-17T08:06:27.549Z,5.00
2022-10-17T08:08:53.960Z,4.88
2022-10-17T08:11:21.320Z,4.43
2022-10-17T08:13:47.766Z,4.68
2022-10-17T08:16:14.218Z,5.45
2022-10-17T08:18:41.651Z,5.65
2022-10-17T08:21:08.590Z,5.03
2022-10-17T08:23:35.473Z,5.45
2022-10-17T08:26:02.524Z,5.32
2022-10-17T08:28:29.236Z,5.10
2022-10-17T08:31:06.339Z,5.40
2022-10-17T08:33:33.415Z,5.25
2022-10-17T08:36:00.488Z,5.80
2022-10-17T08:38:29.428Z,5.72
2022-10-17T08:41:02.622Z,5.88
2022-10-17T08:43:35.572Z,5.72
2022-10-17T08:46:03.647Z,5.43
2022-10-17T08:48:32.831Z,6.05
2022-10-17T08:51:05.901Z,6.70
2022-10-17T08:53:41.688Z,5.45
2022-10-17T08:56:19.744Z,5.75
2022-10-17T08:58:46.508Z,5.82
2022-10-17T09:01:28.317Z,5.82
2022-10-17T09:04:03.683Z,6.38
2022-10-17T09:06:50.324Z,5.88
2022-10-17T09:09:16.681Z,6.90
2022-10-17T09:11:43.048Z,5.70
2022-10-17T09:14:17.161Z,5.95
2022-10-17T09:16:55.746Z,6.15
2022-10-17T09:19:43.644Z,6.05
2022-10-17T09:22:13.370Z,7.47
2022-10-17T09:24:42.906Z,7.03
2022-10-17T09:27:22.539Z,7.28
2022-10-17T09:29:50.370Z,6.47
2022-10-17T09:32:24.112Z,6.90
2022-10-17T09:34:51.587Z,6.32
2022-10-17T09:37:18.338Z,7.13
2022-10-17T09:39:45.394Z,6.97
2022-10-17T09:42:18.714Z,7.68
2022-10-17T09:44:51.874Z,7.03
2022-10-17T09:47:38.134Z,7.05
2022-10-17T09:50:08.893Z,6.50
2022-10-17T09:52:39.353Z,7.30
2022-10-17T09:55:12.417Z,8.00
2022-10-17T09:57:53.890Z,7.20
2022-10-17T10:00:22.386Z,7.67
2022-10-17T10:02:48.785Z,7.70
2022-10-17T10:05:16.551Z,7.50
2022-10-17T10:07:45.451Z,6.97
2022-10-17T10:10:27.631Z,7.82
2022-10-17T10:13:03.654Z,7.97
2022-10-17T10:15:35.170Z,7.85
2022-10-17T10:18:01.654Z,8.18
2022-10-17T10:20:32.730Z,8.15
2022-10-17T10:23:05.165Z,8.00
2022-10-17T10:25:31.613Z,8.73
2022-10-17T10:28:00.671Z,7.65
2022-10-17T10:30:29.942Z,7.85
2022-10-17T10:32:57.593Z,8.32
2022-10-17T10:35:27.609Z,7.97
2022-10-17T10:37:55.444Z,7.90
2022-10-17T10:40:32.576Z,8.07
2022-10-17T10:43:04.811Z,7.97
2022-10-17T10:45:53.054Z,7.35
2022-10-17T10:48:31.042Z,7.95
2022-10-17T10:51:01.944Z,7.72
2022-10-17T10:53:35.548Z,7.50
2022-10-17T10:56:21.146Z,7.05
2022-10-17T10:59:08.217Z,7.90
2022-10-17T11:01:45.273Z,8.05
2022-10-17T11:04:33.227Z,7.78
2022-10-17T11:07:07.221Z,7.95
2022-10-17T11:09:57.375Z,7.85
2022-10-17T11:12:24.128Z,7.78
2022-10-17T11:15:03.250Z,8.02
2022-10-17T11:17:39.027Z,7.72
2022-10-17T11:20:08.613Z,7.68
2022-10-17T11:22:54.421Z,7.60
2022-10-17T11:25:37.803Z,7.38
2022-10-17T11:28:11.305Z,7.90
2022-10-17T11:31:03.337Z,7.63
2022-10-17T11:33:50.641Z,7.43
2022-10-17T11:36:18.295Z,7.72
2022-10-17T11:38:56.926Z,7.60
2022-10-17T11:41:29.818Z,7.63
2022-10-17T11:44:03.357Z,7.65
2022-10-17T11:46:30.628Z,7.90
2022-10-17T11:49:20.495Z,7.88
2022-10-17T11:52:00.312Z,7.65
2022-10-17T11:54:27.952Z,7.80
2022-10-17T11:57:14.057Z,8.70
2022-10-17T11:59:41.216Z,7.65
2022-10-17T12:02:36.773Z,7.65
2022-10-17T12:05:07.040Z,7.57
2022-10-17T12:07:39.761Z,7.68
2022-10-17T12:10:18.551Z,7.25
2022-10-17T12:12:44.973Z,7.50
2022-10-17T12:15:14.368Z,7.10
2022-10-17T12:17:44.770Z,7.95
2022-10-17T12:20:21.221Z,7.82
2022-10-17T12:22:48.649Z,7.50
2022-10-17T12:25:19.741Z,7.60
2022-10-17T12:27:50.579Z,7.45
2022-10-17T12:30:21.850Z,7.47
2022-10-17T12:33:06.782Z,7.33
2022-10-17T12:35:34.639Z,7.13
2022-10-17T12:38:01.068Z,8.32
2022-10-17T12:40:36.303Z,7.28
2022-10-17T12:43:15.287Z,7.20
2022-10-17T12:45:52.526Z,7.75
2022-10-17T12:48:34.275Z,8.32
2022-10-17T12:54:15.026Z,7.32
2022-10-17T12:56:42.563Z,7.40
2022-10-17T12:59:13.586Z,7.20
2022-10-17T13:01:40.616Z,7.13
2022-10-17T13:04:09.228Z,7.32
2022-10-17T13:06:40.380Z,7.40
2022-10-17T13:09:18.013Z,8.15
2022-10-17T13:11:44.562Z,7.50
2022-10-17T13:14:12.716Z,7.28
2022-10-17T13:16:58.538Z,7.30
2022-10-17T13:19:26.792Z,8.07
2022-10-17T13:22:00.960Z,7.70
2022-10-17T13:24:31.870Z,7.25
2022-10-17T13:26:58.533Z,7.22
2022-10-17T13:29:25.945Z,7.30
2022-10-17T13:31:54.353Z,7.45
2022-10-17T13:34:22.104Z,7.38
2022-10-17T13:36:50.605Z,7.43
2022-10-17T13:39:38.443Z,7.47
2022-10-17T13:42:21.593Z,7.10
2022-10-17T13:44:48.613Z,7.28
2022-10-17T13:47:25.686Z,7.10
2022-10-17T13:49:55.267Z,7.03
2022-10-17T13:52:23.639Z,7.40
2022-10-17T13:54:51.279Z,7.63
2022-10-17T13:57:22.814Z,7.53
2022-10-17T13:59:50.434Z,6.90
2022-10-17T14:02:19.084Z,7.70
2022-10-17T14:05:15.101Z,7.40
2022-10-17T14:08:05.669Z,7.30
2022-10-17T14:10:25.688Z,7.32
2022-10-17T14:12:53.055Z,6.60
2022-10-17T14:15:21.274Z,7.20
2022-10-17T14:17:54.001Z,7.00
2022-10-17T14:23:27.748Z,6.63
2022-10-17T14:26:04.335Z,6.88
2022-10-17T14:28:30.916Z,6.90
2022-10-17T14:31:09.396Z,6.18
2022-10-17T14:33:38.520Z,7.00
2022-10-17T14:38:35.972Z,6.97
2022-10-17T14:41:37.827Z,7.43
2022-10-17T14:43:56.894Z,6.97
2022-10-17T14:46:23.768Z,6.70
2022-10-17T14:48:54.772Z,7.30
2022-10-17T14:51:21.243Z,7.13
2022-10-17T14:54:05.078Z,7.05
2022-10-17T14:56:36.770Z,6.47
2022-10-17T14:59:07.547Z,6.47
2022-10-17T15:01:37.912Z,6.32
2022-10-17T15:04:04.439Z,6.85
2022-10-17T15:06:32.537Z,6.85
2022-10-17T15:08:59.199Z,6.55
2022-10-17T15:11:25.742Z,6.47
2022-10-17T15:13:52.254Z,6.32
2022-10-17T15:16:19.884Z,6.45
2022-10-17T15:18:46.345Z,6.45
2022-10-17T15:21:33.634Z,6.00
2022-10-17T15:24:01.753Z,6.18
2022-10-17T15:26:31.476Z,6.70
2022-10-17T15:28:58.186Z,6.45
2022-10-17T15:31:26.085Z,6.25
2022-10-17T15:33:52.700Z,6.28
2022-10-17T15:36:21.997Z,6.40
2022-10-17T15:38:48.929Z,5.90
2022-10-17T15:41:15.527Z,6.40
2022-10-17T15:43:42.216Z,6.28
2022-10-17T15:46:27.754Z,6.35
2022-10-17T15:48:54.632Z,6.40
2022-10-17T15:51:21.656Z,6.43
2022-10-17T15:53:48.193Z,6.55
2022-10-17T15:56:19.968Z,6.70
2022-10-17T15:58:46.438Z,7.68
2022-10-17T16:01:19.121Z,8.10
2022-10-17T16:03:47.569Z,8.68
2022-10-17T16:06:14.314Z,10.63
2022-10-17T16:08:41.000Z,14.05
2022-10-17T16:11:10.243Z,14.77
2022-10-17T16:13:37.508Z,16.60
2022-10-17T16:16:03.954Z,13.35
2022-10-17T16:18:30.328Z,14.13
2022-10-17T16:20:56.719Z,16.17
2022-10-17T16:23:23.126Z,15.90
2022-10-17T16:25:49.522Z,16.00
2022-10-17T16:28:15.955Z,13.45
2022-10-17T16:30:44.899Z,14.60
2022-10-17T16:33:11.680Z,17.35
2022-10-17T16:35:38.357Z,15.77
2022-10-17T16:38:05.604Z,14.55
2022-10-17T16:40:31.978Z,15.45
2022-10-17T16:42:59.811Z,14.02
2022-10-17T16:45:26.238Z,13.63
2022-10-17T16:47:53.329Z,14.98
2022-10-17T16:50:20.055Z,14.57
2022-10-17T16:52:46.489Z,13.68
2022-10-17T16:55:13.007Z,14.73
2022-10-17T16:57:39.753Z,12.63
2022-10-17T17:00:06.690Z,12.68
2022-10-17T17:02:33.324Z,13.00
2022-10-17T17:05:00.059Z,14.45
2022-10-17T17:07:29.358Z,12.13
2022-10-17T17:09:56.319Z,13.93
2022-10-17T17:12:22.914Z,13.07
2022-10-17T17:14:49.355Z,11.55
2022-10-17T17:17:24.676Z,10.38
2022-10-17T17:20:02.196Z,10.40
2022-10-17T17:22:28.878Z,10.60
2022-10-17T17:24:55.305Z,11.07
2022-10-17T17:27:21.697Z,9.73
2022-10-17T17:29:48.127Z,9.75
2022-10-17T17:32:14.844Z,9.65
2022-10-17T17:34:41.382Z,10.13
2022-10-17T17:37:07.889Z,9.15
2022-10-17T17:39:37.098Z,8.95
2022-10-17T17:42:04.427Z,9.55
2022-10-17T17:44:31.833Z,8.90
2022-10-17T17:46:58.267Z,8.40
2022-10-17T17:49:24.674Z,8.32
2022-10-17T17:51:51.172Z,7.95
2022-10-17T17:54:17.549Z,8.68
2022-10-17T17:56:43.958Z,8.20
2022-10-17T17:59:12.014Z,8.55
2022-10-17T18:01:40.733Z,7.90
2022-10-17T18:04:08.799Z,7.28
2022-10-17T18:06:35.911Z,7.22
2022-10-17T18:09:02.357Z,7.43
2022-10-17T18:11:28.859Z,6.82
2022-10-17T18:13:59.404Z,7.00
2022-10-17T18:16:26.769Z,6.50
2022-10-17T18:18:53.189Z,6.85
2022-10-17T18:21:19.873Z,7.05
2022-10-17T18:23:46.975Z,6.15
2022-10-17T18:26:14.567Z,5.80
2022-10-17T18:33:39.690Z,5.97
2022-10-17T18:36:07.502Z,6.15
2022-10-17T18:38:34.126Z,5.72
2022-10-17T18:41:04.906Z,5.00
2022-10-17T18:43:32.474Z,5.93
2022-10-17T18:46:04.713Z,5.78
2022-10-17T18:48:32.067Z,5.35
2022-10-17T18:50:58.648Z,5.28
2022-10-17T18:53:25.059Z,5.43
2022-10-17T18:55:51.531Z,4.88
2022-10-17T18:58:19.667Z,5.15
2022-10-17T19:00:46.255Z,4.88
2022-10-17T19:03:12.750Z,4.63
2022-10-17T19:05:39.902Z,4.97
2022-10-17T19:08:06.485Z,5.10
2022-10-17T19:10:33.908Z,4.60
2022-10-17T19:13:00.394Z,4.82
2022-10-17T19:15:27.052Z,4.97
2022-10-17T19:17:53.684Z,4.90
2022-10-17T19:20:20.165Z,4.68
2022-10-17T19:22:46.684Z,4.78
2022-10-17T19:25:13.271Z,5.00
2022-10-17T19:27:39.740Z,4.30
2022-10-17T19:30:06.602Z,4.22
2022-10-17T19:32:33.318Z,4.68
2022-10-17T19:34:59.958Z,4.18
2022-10-17T19:37:26.372Z,4.47
2022-10-17T19:39:52.742Z,4.70
2022-10-17T19:42:19.153Z,4.05
2022-10-17T19:44:45.795Z,4.00
2022-10-17T19:47:12.159Z,4.07
2022-10-17T19:49:39.016Z,4.18
2022-10-17T19:52:05.547Z,4.90
2022-10-17T19:54:31.969Z,4.32
2022-10-17T19:56:58.412Z,5.00
2022-10-17T19:59:26.180Z,4.60
2022-10-17T20:01:52.760Z,4.35
2022-10-17T20:04:19.250Z,4.07
2022-10-17T20:06:45.744Z,3.95
2022-10-17T20:09:15.873Z,3.90
2022-10-17T20:11:44.116Z,4.13
2022-10-17T20:14:10.572Z,4.07
2022-10-17T20:16:37.299Z,4.00
2022-10-17T20:19:07.879Z,3.83
2022-10-17T20:21:36.427Z,3.33
2022-10-17T20:24:03.897Z,3.55
2022-10-17T20:26:38.114Z,3.50
2022-10-17T20:29:08.917Z,3.60
2022-10-17T20:31:35.446Z,3.50
2022-10-17T20:34:01.933Z,3.50
2022-10-17T20:36:28.373Z,3.40
2022-10-17T20:38:55.693Z,3.30
2022-10-17T20:41:22.482Z,3.40
2022-10-17T20:43:52.857Z,3.40
2022-10-17T20:46:34.916Z,3.65
2022-10-17T20:49:01.802Z,3.13
2022-10-17T20:51:28.361Z,3.40
2022-10-17T20:53:54.806Z,3.20
2022-10-17T20:56:25.664Z,3.60
2022-10-17T20:58:56.145Z,3.28
2022-10-17T21:01:22.907Z,3.28
2022-10-17T21:03:49.781Z,3.58
2022-10-17T21:06:17.267Z,3.53
2022-10-17T21:08:44.028Z,2.70
2022-10-17T21:11:15.142Z,2.72
2022-10-17T21:13:41.823Z,3.10
2022-10-17T21:16:09.515Z,3.15
2022-10-17T21:18:36.107Z,2.97
2022-10-17T21:21:08.703Z,2.97
2022-10-17T21:23:35.120Z,3.17
2022-10-17T21:26:01.731Z,2.75
2022-10-17T21:28:28.212Z,3.85
2022-10-17T21:30:54.596Z,3.30
2022-10-17T21:33:21.032Z,2.97
2022-10-17T21:35:48.259Z,2.88
2022-10-17T21:38:14.685Z,3.15
2022-10-17T21:40:41.113Z,3.00
2022-10-17T21:43:07.496Z,2.97
2022-10-17T21:45:35.766Z,2.80
2022-10-17T21:48:12.561Z,2.70
2022-10-17T21:50:39.573Z,3.10
2022-10-17T21:53:06.013Z,2.60
2022-10-17T21:55:32.437Z,2.78
2022-10-17T21:57:58.771Z,2.67
2022-10-17T22:00:25.157Z,2.70
2022-10-17T22:02:51.569Z,3.38
2022-10-17T22:05:18.002Z,2.38
2022-10-17T22:07:44.365Z,2.40
2022-10-17T22:10:10.880Z,2.30
2022-10-17T22:12:37.378Z,2.53
2022-10-17T22:15:04.114Z,2.30
2022-10-17T22:17:30.913Z,2.63
2022-10-17T22:19:57.544Z,2.47
2022-10-17T22:22:23.985Z,2.03
2022-10-17T22:24:50.372Z,2.55
2022-10-17T22:27:16.780Z,2.15
2022-10-17T22:29:43.200Z,2.15
2022-10-17T22:32:09.640Z,2.50
2022-10-17T22:34:36.089Z,2.28
2022-10-17T22:37:02.516Z,1.95
2022-10-17T22:39:28.919Z,1.90
2022-10-17T22:41:55.345Z,2.10
2022-10-17T22:44:21.747Z,2.08
2022-10-17T22:46:48.215Z,2.13
2022-10-17T22:49:14.743Z,2.05
2022-10-17T22:51:41.166Z,2.22
2022-10-17T22:54:07.610Z,1.90
2022-10-17T22:56:34.185Z,2.10
2022-10-17T22:59:00.683Z,2.00
2022-10-17T23:01:27.207Z,2.00
2022-10-17T23:03:53.664Z,1.98
2022-10-17T23:06:20.567Z,1.58
2022-10-17T23:08:47.156Z,1.92
2022-10-17T23:11:13.617Z,1.98
2022-10-17T23:13:41.048Z,1.90
2022-10-17T23:16:08.258Z,1.90
2022-10-17T23:18:34.663Z,1.83
2022-10-17T23:21:01.211Z,1.63
2022-10-17T23:23:27.650Z,1.70
2022-10-17T23:25:54.085Z,2.15
2022-10-17T23:28:20.527Z,1.65
2022-10-17T23:30:47.000Z,1.80
2022-10-17T23:33:13.850Z,1.65
2022-10-17T23:35:40.489Z,1.75
2022-10-17T23:38:07.021Z,2.20
2022-10-17T23:40:34.835Z,1.70
2022-10-17T23:43:01.459Z,1.58
2022-10-17T23:45:27.912Z,1.40
2022-10-17T23:47:54.392Z,1.90
2022-10-17T23:50:20.825Z,1.70
2022-10-17T23:52:47.224Z,2.05
2022-10-17T23:55:13.668Z,1.75
2022-10-17T23:57:40.043Z,1.60
